Abadi Jangal, Iran

11:34 PM +0430 on July 18, 2019 (GMT +0430)
Kish | | Change Station

Elev 98 ft 26.53 °N, 53.98 °E | Updated 4 minutes ago

Haze
Haze
91 °F
Feels Like 118 °F
N
2
Wind Variable Wind from Variable

Today
High -- | Low -- °F
--% Chance of Precip.
Yesterday
High -- | Low -- °F
Precip. -- in
Pressure 29.42 in
Visibility 3.1 miles
Clouds
Heat Index 118 °F
Dew Point 84 °F
Humidity 79%
Rainfall 0.00 in
Snow Depth Not available.
6:08 AM 7:45 PM
Waning Gibbous, 97% visible
METAR OIBK 181900Z VRB02KT 5000 HZ NSC 33/29 Q0996
Pressure 29.42 in
Visibility 3.1 miles
Clouds
Heat Index 118 °F
Dew Point 84 °F
Humidity 79%
Rainfall 0.00 in
Snow Depth Not available.
6:08 AM 7:45 PM
Waning Gibbous, 97% visible
METAR OIBK 181900Z VRB02KT 5000 HZ NSC 33/29 Q0996

Get Severe Weather Alerts

Thanks for signing up!

Be on the lookout for a verification email in your inbox.

You'll start receiving the daily forecast at 6 AM.

×

10-Day Weather Forecast

No radar image for this location.
×

Almanac

Astronomy

Jul. 18, 2019 Rise Set
Actual Time
Civil Twilight
Nautical Twilight
Astronomical Twilight
Moon
Length of Visible Light
Length of Day
Tomorrow will be .
, % of the Moon is Illuminated

Today's Extremes

Country Highs Country Lows

Community

WunderPhotos

Category 6

Welcome to Category 6. This is the collective home for Weather Underground's featured writeups by Dr. Jeff Masters (right), Bob Henson (left), Chris Burt, and other regular contributors.

Nearby

Air Quality

  Air Quality AQ Index Pollutant
Not available.

Snow Depth

Station Depth Elevation

Earthquake Activity

City Distance Mag. Time & Date
Minimum magnitude displayed is 2.5.

Coastal Water Temperatures

Place Temperature

Stations

Nearby Weather Stations

Station Location Temp. Windchill Dew Point Humidity Wind Precip. Elev Updated Type